createdAt,value
2023-01-21T00:01:35.188Z,-4.70
2023-01-21T00:05:35.344Z,-4.80
2023-01-21T00:09:36.139Z,-4.80
2023-01-21T00:13:40.269Z,-4.80
2023-01-21T00:17:40.430Z,-4.90
2023-01-21T00:21:40.586Z,-4.90
2023-01-21T00:25:40.790Z,-4.90
2023-01-21T00:29:43.594Z,-5.00
2023-01-21T00:33:44.293Z,-4.80
2023-01-21T00:37:45.198Z,-4.50
2023-01-21T00:41:45.417Z,-4.10
2023-01-21T00:45:48.167Z,-3.90
2023-01-21T00:49:48.360Z,-3.60
2023-01-21T00:53:48.572Z,-3.40
2023-01-21T00:57:48.714Z,-3.30
2023-01-21T01:01:51.627Z,-3.20
2023-01-21T01:05:51.773Z,-3.10
2023-01-21T01:09:51.926Z,-3.10
2023-01-21T01:13:52.154Z,-3.00
2023-01-21T01:17:55.195Z,-3.00
2023-01-21T01:21:55.334Z,-3.10
2023-01-21T01:26:00.726Z,-3.10
2023-01-21T01:30:00.834Z,-3.20
2023-01-21T01:34:03.591Z,-3.20
2023-01-21T01:38:08.034Z,-3.20
2023-01-21T01:42:08.315Z,-3.20
2023-01-21T01:46:08.591Z,-3.20
2023-01-21T01:50:18.317Z,-3.20
2023-01-21T01:54:23.246Z,-3.10
2023-01-21T01:58:25.677Z,-3.20
2023-01-21T02:02:25.878Z,-3.20
2023-01-21T02:06:29.791Z,-3.30
2023-01-21T02:10:30.137Z,-3.30
2023-01-21T02:14:32.411Z,-3.30
2023-01-21T02:18:45.754Z,-3.30
2023-01-21T02:23:01.607Z,-3.30
2023-01-21T02:27:43.793Z,-3.30
2023-01-21T02:32:22.797Z,-3.20
2023-01-21T02:36:59.210Z,-3.20
2023-01-21T02:41:14.452Z,-3.10
2023-01-21T02:45:29.717Z,-3.10
2023-01-21T02:49:38.054Z,-3.10
2023-01-21T02:53:40.865Z,-3.10
2023-01-21T02:57:47.467Z,-3.00
2023-01-21T03:02:08.479Z,-3.00
2023-01-21T03:06:55.667Z,-2.90
2023-01-21T03:11:12.007Z,-2.90
2023-01-21T03:15:31.435Z,-2.90
2023-01-21T03:19:39.997Z,-2.80
2023-01-21T03:23:47.335Z,-2.80
2023-01-21T03:27:52.480Z,-2.80
2023-01-21T03:31:59.803Z,-2.80
2023-01-21T03:36:04.496Z,-2.60
2023-01-21T03:40:19.280Z,-2.50
2023-01-21T03:44:22.408Z,-2.40
2023-01-21T03:48:31.449Z,-2.40
2023-01-21T03:52:32.108Z,-2.40
2023-01-21T03:56:32.592Z,-2.30
2023-01-21T04:00:35.326Z,-2.40
2023-01-21T04:09:45.821Z,-2.30
2023-01-21T04:13:46.188Z,-2.40
2023-01-21T04:17:48.898Z,-2.40
2023-01-21T04:21:49.725Z,-2.40
2023-01-21T04:25:51.072Z,-2.40
2023-01-21T04:29:51.236Z,-2.40
2023-01-21T04:33:53.903Z,-2.40
2023-01-21T04:37:54.151Z,-2.40
2023-01-21T04:41:54.268Z,-2.40
2023-01-21T04:45:54.398Z,-2.40
2023-01-21T04:49:57.309Z,-2.40
2023-01-21T04:53:57.472Z,-2.40
2023-01-21T04:57:57.619Z,-2.40
2023-01-21T05:01:57.712Z,-2.50
2023-01-21T05:06:00.438Z,-2.40
2023-01-21T05:10:00.626Z,-2.40
2023-01-21T05:14:00.796Z,-2.40
2023-01-21T05:18:01.063Z,-2.50
2023-01-21T05:22:04.231Z,-2.50
2023-01-21T05:26:04.407Z,-2.40
2023-01-21T05:30:04.542Z,-2.50
2023-01-21T05:34:04.871Z,-2.40
2023-01-21T05:38:07.815Z,-2.40
2023-01-21T05:42:08.274Z,-2.30
2023-01-21T05:46:09.025Z,-2.30
2023-01-21T05:50:11.621Z,-2.40
2023-01-21T05:54:14.393Z,-2.40
2023-01-21T05:58:14.758Z,-2.50
2023-01-21T06:02:14.965Z,-2.50
2023-01-21T06:06:15.061Z,-2.50
2023-01-21T06:10:19.056Z,-2.50
2023-01-21T06:14:19.335Z,-2.50
2023-01-21T06:18:19.465Z,-2.50
2023-01-21T06:22:20.887Z,-2.50
2023-01-21T06:26:25.002Z,-2.50
2023-01-21T06:30:27.553Z,-2.40
2023-01-21T06:34:27.762Z,-2.30
2023-01-21T06:38:27.976Z,-2.20
2023-01-21T06:42:30.786Z,-2.10
2023-01-21T06:46:30.964Z,-2.10
2023-01-21T06:50:31.182Z,-2.00
2023-01-21T06:54:31.403Z,-2.10
2023-01-21T06:58:34.266Z,-2.10
2023-01-21T07:02:34.680Z,-2.20
2023-01-21T07:06:34.954Z,-2.20
2023-01-21T07:10:35.188Z,-2.20
2023-01-21T07:14:38.062Z,-2.20
2023-01-21T07:18:38.462Z,-2.10
2023-01-21T07:22:38.959Z,-2.10
2023-01-21T07:26:39.290Z,-2.00
2023-01-21T07:30:42.093Z,-1.90
2023-01-21T07:34:42.318Z,-1.90
2023-01-21T07:38:42.713Z,-1.90
2023-01-21T07:42:42.835Z,-1.80
2023-01-21T07:46:45.659Z,-1.60
2023-01-21T07:50:45.800Z,-1.50
2023-01-21T07:54:45.980Z,-1.40
2023-01-21T07:58:47.174Z,-1.40
2023-01-21T08:02:55.119Z,-1.30
2023-01-21T08:06:57.178Z,-1.10
2023-01-21T08:10:58.891Z,-1.20
2023-01-21T08:14:59.038Z,-1.10
2023-01-21T08:19:01.924Z,-1.10
2023-01-21T08:23:03.535Z,-1.00
2023-01-21T08:27:03.938Z,-1.00
2023-01-21T08:31:09.534Z,-0.90
2023-01-21T08:35:13.179Z,-0.80
2023-01-21T08:39:16.011Z,-0.70
2023-01-21T08:43:16.112Z,-0.60
2023-01-21T08:47:16.342Z,-0.60
2023-01-21T08:51:21.522Z,-0.70
2023-01-21T08:55:21.925Z,-0.70
2023-01-21T08:59:28.860Z,-0.70
2023-01-21T09:03:30.023Z,-0.70
2023-01-21T09:07:32.774Z,-0.80
2023-01-21T09:11:34.812Z,-0.70
2023-01-21T09:15:35.048Z,-0.60
2023-01-21T09:19:35.192Z,-0.60
2023-01-21T09:23:39.789Z,-0.60
2023-01-21T09:27:39.999Z,-0.70
2023-01-21T09:31:40.364Z,-0.70
2023-01-21T09:35:40.519Z,-0.60
2023-01-21T09:39:43.201Z,-0.40
2023-01-21T09:43:49.178Z,-0.40
2023-01-21T09:47:52.482Z,-0.20
2023-01-21T09:52:02.219Z,-0.20
2023-01-21T09:56:24.672Z,0.00
2023-01-21T10:00:39.701Z,0.00
2023-01-21T10:04:51.204Z,0.10
2023-01-21T10:09:49.070Z,0.30
2023-01-21T10:14:28.749Z,0.40
2023-01-21T10:18:35.190Z,0.50
2023-01-21T10:22:36.639Z,0.60
2023-01-21T10:26:38.254Z,0.70
2023-01-21T10:30:46.778Z,0.90
2023-01-21T10:34:56.023Z,1.10
2023-01-21T10:39:11.260Z,1.10
2023-01-21T10:43:23.951Z,1.20
2023-01-21T10:47:42.489Z,1.10
2023-01-21T10:51:52.175Z,1.10
2023-01-21T10:56:19.047Z,0.80
2023-01-21T11:00:25.378Z,1.00
2023-01-21T11:04:31.288Z,1.00
2023-01-21T11:08:31.683Z,1.10
2023-01-21T11:12:33.000Z,1.40
2023-01-21T11:16:48.607Z,1.60
2023-01-21T11:20:52.035Z,2.10
2023-01-21T11:24:54.564Z,1.80
2023-01-21T11:29:14.684Z,1.90
2023-01-21T11:33:23.560Z,2.10
2023-01-21T11:37:29.940Z,2.40
2023-01-21T11:41:30.924Z,2.50
2023-01-21T11:45:34.053Z,2.70
2023-01-21T11:49:35.731Z,2.90
2023-01-21T11:53:38.515Z,3.70
2023-01-21T11:57:38.936Z,4.30
2023-01-21T12:01:39.301Z,4.40
2023-01-21T12:05:45.778Z,5.10
2023-01-21T12:09:53.753Z,4.90
2023-01-21T12:14:04.992Z,4.60
2023-01-21T12:18:19.929Z,4.00
2023-01-21T12:22:42.191Z,3.20
2023-01-21T12:26:49.487Z,3.10
2023-01-21T12:31:08.048Z,3.30
2023-01-21T12:35:19.521Z,2.90
2023-01-21T12:39:27.669Z,3.00
2023-01-21T12:43:36.814Z,2.80
2023-01-21T12:47:47.607Z,2.40
2023-01-21T12:51:53.881Z,1.90
2023-01-21T12:56:10.828Z,1.40
2023-01-21T13:00:24.017Z,1.20
2023-01-21T13:04:43.583Z,1.00
2023-01-21T13:09:06.062Z,1.00
2023-01-21T13:13:21.058Z,1.00
2023-01-21T13:17:29.917Z,0.90
2023-01-21T13:21:42.545Z,1.00
2023-01-21T13:25:53.973Z,0.80
2023-01-21T13:30:04.716Z,0.70
2023-01-21T13:34:22.555Z,0.70
2023-01-21T13:38:35.032Z,0.60
2023-01-21T13:42:50.290Z,0.70
2023-01-21T13:47:09.384Z,0.60
2023-01-21T13:51:38.585Z,0.60
2023-01-21T13:55:54.742Z,0.70
2023-01-21T14:00:00.717Z,0.80
2023-01-21T14:04:09.610Z,1.00
2023-01-21T14:08:22.488Z,1.10
2023-01-21T14:12:36.600Z,1.20
2023-01-21T14:17:09.387Z,1.30
2023-01-21T14:21:49.298Z,1.10
2023-01-21T14:26:11.642Z,0.90
2023-01-21T14:30:21.835Z,0.60
2023-01-21T14:34:27.739Z,0.60
2023-01-21T14:38:46.277Z,0.40
2023-01-21T14:42:53.336Z,0.40
2023-01-21T14:47:23.895Z,0.30
2023-01-21T14:51:25.465Z,0.40
2023-01-21T14:55:32.072Z,0.30
2023-01-21T14:59:43.661Z,0.20
2023-01-21T15:03:52.883Z,0.10
2023-01-21T15:08:07.344Z,0.00
2023-01-21T15:12:19.282Z,0.10
2023-01-21T15:16:38.552Z,0.10
2023-01-21T15:20:50.024Z,0.00
2023-01-21T15:25:21.205Z,-0.10
2023-01-21T15:29:36.974Z,-0.10
2023-01-21T15:33:48.384Z,-0.10
2023-01-21T15:37:53.828Z,-0.20
2023-01-21T15:42:13.531Z,-0.20
2023-01-21T15:46:31.699Z,-0.30
2023-01-21T15:50:46.109Z,-0.40
2023-01-21T15:54:58.249Z,-0.50
2023-01-21T15:59:15.241Z,-0.60
2023-01-21T16:03:30.609Z,-0.60
2023-01-21T16:07:59.598Z,-0.60
2023-01-21T16:12:20.261Z,-0.60
2023-01-21T16:16:40.081Z,-0.60
2023-01-21T16:20:45.971Z,-0.60
2023-01-21T16:24:52.576Z,-0.50
2023-01-21T16:28:52.855Z,-0.60
2023-01-21T16:33:12.496Z,-0.70
2023-01-21T16:37:16.283Z,-0.70
2023-01-21T16:41:27.685Z,-0.70
2023-01-21T16:45:28.715Z,-0.80
2023-01-21T16:49:29.366Z,-0.90
2023-01-21T16:53:30.330Z,-0.80
2023-01-21T16:57:35.137Z,-0.80
2023-01-21T17:01:36.055Z,-0.80
2023-01-21T17:05:40.186Z,-0.80
2023-01-21T17:09:40.783Z,-0.90
2023-01-21T17:13:46.533Z,-0.90
2023-01-21T17:17:48.789Z,-0.90
2023-01-21T17:21:55.573Z,-1.00
2023-01-21T17:26:03.504Z,-1.00
2023-01-21T17:30:30.537Z,-1.00
2023-01-21T17:34:32.851Z,-1.00
2023-01-21T17:38:33.410Z,-1.00
2023-01-21T17:42:42.659Z,-1.00
2023-01-21T17:46:51.485Z,-1.10
2023-01-21T17:50:52.689Z,-1.10
2023-01-21T17:54:52.832Z,-1.10
2023-01-21T17:58:55.867Z,-1.00
2023-01-21T18:02:58.923Z,-1.00
2023-01-21T18:07:00.260Z,-1.00
2023-01-21T18:11:00.491Z,-1.00
2023-01-21T18:15:00.653Z,-0.90
2023-01-21T18:19:03.444Z,-0.80
2023-01-21T18:23:03.633Z,-0.90
2023-01-21T18:27:05.314Z,-0.90
2023-01-21T18:31:05.612Z,-0.90
2023-01-21T18:35:09.245Z,-0.80
2023-01-21T18:39:21.818Z,-0.80
2023-01-21T18:43:21.950Z,-0.80
2023-01-21T18:47:23.227Z,-0.80
2023-01-21T18:51:26.451Z,-0.80
2023-01-21T18:55:31.335Z,-0.90
2023-01-21T18:59:31.849Z,-0.90
2023-01-21T19:03:32.703Z,-1.00
2023-01-21T19:07:35.752Z,-1.00
2023-01-21T19:11:36.039Z,-1.10
2023-01-21T19:15:36.200Z,-1.10
2023-01-21T19:19:36.500Z,-1.10
2023-01-21T19:23:40.229Z,-1.20
2023-01-21T19:27:44.927Z,-1.30
2023-01-21T19:31:45.456Z,-1.30
2023-01-21T19:35:48.122Z,-1.40
2023-01-21T19:39:50.910Z,-1.60
2023-01-21T19:43:51.089Z,-1.70
2023-01-21T19:47:54.251Z,-1.80
2023-01-21T19:51:54.592Z,-1.80
2023-01-21T19:55:58.719Z,-1.70
2023-01-21T19:59:59.656Z,-1.70
2023-01-21T20:04:01.060Z,-1.60
2023-01-21T20:08:02.899Z,-1.50
2023-01-21T20:12:06.720Z,-1.60
2023-01-21T20:16:19.049Z,-1.50
2023-01-21T20:20:26.603Z,-1.50
2023-01-21T20:24:26.969Z,-1.50
2023-01-21T20:28:39.862Z,-1.40
2023-01-21T20:32:40.622Z,-1.40
2023-01-21T20:36:41.850Z,-1.40
2023-01-21T20:40:42.727Z,-1.40
2023-01-21T20:44:45.686Z,-1.40
2023-01-21T20:48:47.653Z,-1.30
2023-01-21T20:52:48.010Z,-1.30
2023-01-21T20:56:48.525Z,-1.30
2023-01-21T21:00:52.534Z,-1.30
2023-01-21T21:04:53.846Z,-1.40
2023-01-21T21:08:54.691Z,-1.40
2023-01-21T21:12:55.913Z,-1.40
2023-01-21T21:16:58.973Z,-1.40
2023-01-21T21:20:59.258Z,-1.50
2023-01-21T21:24:59.416Z,-1.40
2023-01-21T21:29:00.204Z,-1.40
2023-01-21T21:33:04.338Z,-1.40
2023-01-21T21:37:04.541Z,-1.30
2023-01-21T21:41:26.532Z,-1.40
2023-01-21T21:45:27.436Z,-1.40
2023-01-21T21:49:31.922Z,-1.50
2023-01-21T21:53:33.283Z,-1.60
2023-01-21T21:57:34.714Z,-1.70
2023-01-21T22:01:36.172Z,-1.80
2023-01-21T22:05:38.954Z,-1.90
2023-01-21T22:09:39.139Z,-1.90
2023-01-21T22:13:43.546Z,-2.00
2023-01-21T22:17:43.653Z,-2.00
2023-01-21T22:21:46.447Z,-2.10
2023-01-21T22:25:46.554Z,-2.10
2023-01-21T22:29:46.639Z,-2.20
2023-01-21T22:33:47.320Z,-2.40
2023-01-21T22:37:50.087Z,-2.40
2023-01-21T22:41:50.244Z,-2.40
2023-01-21T22:45:50.768Z,-2.40
2023-01-21T22:49:50.965Z,-2.30
2023-01-21T22:53:55.632Z,-2.20
2023-01-21T22:57:55.771Z,-2.20
2023-01-21T23:01:55.864Z,-2.00
2023-01-21T23:05:57.342Z,-2.00
2023-01-21T23:10:00.022Z,-1.90
2023-01-21T23:14:00.458Z,-1.90
2023-01-21T23:18:00.690Z,-1.80
2023-01-21T23:22:00.988Z,-1.80
2023-01-21T23:26:05.502Z,-1.70
2023-01-21T23:30:05.800Z,-1.70
2023-01-21T23:34:06.229Z,-1.70
2023-01-21T23:38:07.375Z,-1.80
2023-01-21T23:42:10.374Z,-1.80
2023-01-21T23:46:16.380Z,-1.90
2023-01-21T23:50:17.282Z,-1.90
2023-01-21T23:54:18.877Z,-2.00
2023-01-21T23:58:21.901Z,-2.00
